Time;durP1;ratioP1;P1;durP2;ratioP2;P2;SDS_P1;SDS_P2;PMS_P1;PMS_P2;Temp;Humidity;BMP_temperature;BMP_pressure;BME280_temperature;BME280_humidity;BME280_pressure;Samples;Min_cycle;Max_cycle;Signal;HPM_P1;HPM_P2
2023/06/26 00:00:12;;;;;;;11.97;11.07;;;24.10;10.00;;;;;;5031422;28;20331;-76
2023/06/26 00:02:38;;;;;;;12.50;11.60;;;24.10;10.10;;;;;;5023128;28;20436;-76
2023/06/26 00:05:04;;;;;;;11.73;10.73;;;24.10;10.40;;;;;;5012772;28;20427;-77
2023/06/26 00:07:30;;;;;;;10.70;9.90;;;24.10;10.50;;;;;;5013135;28;20174;-77
2023/06/26 00:09:57;;;;;;;11.30;10.40;;;24.00;10.40;;;;;;5012950;28;20431;-76
2023/06/26 00:12:22;;;;;;;11.40;10.40;;;24.00;10.50;;;;;;5010678;28;20448;-76
2023/06/26 00:14:48;;;;;;;11.00;10.20;;;24.00;10.40;;;;;;5012582;28;20476;-77
2023/06/26 00:17:13;;;;;;;11.57;10.73;;;24.00;10.30;;;;;;5012655;28;20178;-77
2023/06/26 00:19:39;;;;;;;10.83;10.03;;;24.00;10.20;;;;;;5012629;28;20180;-75
2023/06/26 00:22:04;;;;;;;11.00;10.13;;;24.00;10.20;;;;;;5011768;28;20552;-77
2023/06/26 00:24:30;;;;;;;10.93;9.97;;;23.90;10.20;;;;;;5012420;28;20655;-76
2023/06/26 00:26:55;;;;;;;11.40;10.50;;;23.90;10.30;;;;;;5012452;28;20252;-76
2023/06/26 00:29:21;;;;;;;10.63;9.83;;;23.90;10.40;;;;;;5011226;28;20183;-76
2023/06/26 00:31:47;;;;;;;10.90;10.00;;;23.90;10.50;;;;;;5011754;28;20201;-76
2023/06/26 00:34:12;;;;;;;10.83;10.03;;;23.90;10.50;;;;;;5012816;28;20169;-76
2023/06/26 00:36:38;;;;;;;10.63;9.83;;;23.80;10.50;;;;;;5011762;28;20169;-77
2023/06/26 00:39:03;;;;;;;11.30;10.40;;;23.90;10.70;;;;;;5013154;28;20174;-76
2023/06/26 00:41:29;;;;;;;9.50;8.90;;;23.80;10.90;;;;;;5011667;28;20170;-75
2023/06/26 00:43:55;;;;;;;10.90;10.00;;;23.80;10.90;;;;;;5012365;28;20176;-75
2023/06/26 00:46:20;;;;;;;11.07;10.13;;;23.80;11.20;;;;;;5012303;28;20177;-77
2023/06/26 00:48:48;;;;;;;11.97;10.93;;;23.80;11.30;;;;;;5013329;28;20264;-74
2023/06/26 00:51:14;;;;;;;10.43;9.57;;;23.70;11.20;;;;;;5012473;28;20182;-74
2023/06/26 00:53:39;;;;;;;10.77;9.90;;;23.70;11.20;;;;;;5013275;28;20429;-75
2023/06/26 00:56:06;;;;;;;10.33;9.50;;;23.70;11.20;;;;;;5014610;28;20231;-76
2023/06/26 00:58:32;;;;;;;10.67;9.87;;;23.70;11.20;;;;;;5023001;28;20165;-76
2023/06/26 01:00:58;;;;;;;12.30;11.30;;;23.70;11.20;;;;;;5025985;28;20430;-77
2023/06/26 01:03:24;;;;;;;10.53;9.63;;;23.70;11.40;;;;;;5024329;28;20296;-76
2023/06/26 01:05:52;;;;;;;11.03;10.23;;;23.60;11.40;;;;;;5013103;28;20568;-76
2023/06/26 01:08:18;;;;;;;10.30;9.43;;;23.60;11.50;;;;;;5013135;28;20416;-75
2023/06/26 01:10:44;;;;;;;11.60;10.80;;;23.60;11.50;;;;;;5011015;28;20469;-75
2023/06/26 01:13:11;;;;;;;10.17;9.40;;;23.60;11.50;;;;;;5010535;28;20821;-76
2023/06/26 01:15:36;;;;;;;12.57;10.30;;;23.60;11.50;;;;;;5012004;28;20981;-75
2023/06/26 01:18:03;;;;;;;11.20;10.30;;;23.60;11.40;;;;;;5012097;28;20420;-75
2023/06/26 01:20:36;;;;;;;11.50;10.60;;;23.60;11.50;;;;;;5012479;28;20183;-75
2023/06/26 01:23:11;;;;;;;11.40;10.47;;;23.60;11.60;;;;;;5011378;28;20436;-75
2023/06/26 01:25:43;;;;;;;10.97;10.10;;;23.50;11.60;;;;;;5012313;28;20410;-75
2023/06/26 01:28:11;;;;;;;11.60;10.80;;;23.50;11.60;;;;;;5010956;28;20413;-74
2023/06/26 01:30:45;;;;;;;11.60;10.60;;;23.50;11.60;;;;;;5012044;28;20471;-75
2023/06/26 01:33:13;;;;;;;11.80;10.83;;;23.50;11.70;;;;;;5010700;28;20447;-75
2023/06/26 01:35:40;;;;;;;10.90;10.10;;;23.50;11.70;;;;;;5011401;28;20455;-74
2023/06/26 01:38:17;;;;;;;10.53;9.67;;;23.50;11.50;;;;;;5015725;28;20412;-74
2023/06/26 01:40:43;;;;;;;12.40;11.37;;;23.50;11.80;;;;;;5015920;28;20812;-74
2023/06/26 01:43:18;;;;;;;9.93;9.23;;;23.50;11.80;;;;;;5015486;28;20428;-74
2023/06/26 01:45:47;;;;;;;11.00;10.10;;;23.50;11.70;;;;;;5014701;28;20511;-74
2023/06/26 01:48:13;;;;;;;11.87;11.07;;;23.50;11.70;;;;;;5015784;28;20416;-74
2023/06/26 01:50:40;;;;;;;11.50;10.60;;;23.50;11.60;;;;;;5015890;28;20415;-75
2023/06/26 01:53:12;;;;;;;11.13;10.30;;;23.40;11.70;;;;;;5014802;28;20436;-75
2023/06/26 01:55:52;;;;;;;10.33;9.63;;;23.40;11.60;;;;;;5015377;28;20876;-74
2023/06/26 01:58:21;;;;;;;13.70;12.70;;;23.30;11.60;;;;;;5014119;28;20415;-75
2023/06/26 02:00:47;;;;;;;11.73;10.93;;;23.30;11.90;;;;;;5015601;28;20404;-76
2023/06/26 02:03:13;;;;;;;11.10;10.23;;;23.30;11.80;;;;;;5015461;28;20490;-76
2023/06/26 02:09:34;;;;;;;12.00;11.20;;;23.30;11.80;;;;;;5015763;28;20176;-75
2023/06/26 02:12:00;;;;;;;12.57;11.87;;;23.30;11.90;;;;;;5015315;28;20538;-75
2023/06/26 02:14:25;;;;;;;11.87;11.10;;;23.30;12.00;;;;;;5015447;28;20550;-75
2023/06/26 02:16:51;;;;;;;12.03;11.20;;;23.30;12.00;;;;;;5015302;28;20170;-75
2023/06/26 02:19:21;;;;;;;11.87;11.07;;;23.30;12.00;;;;;;5014809;28;20636;-76
2023/06/26 02:21:48;;;;;;;11.30;10.50;;;23.30;12.10;;;;;;5013999;28;20659;-75
2023/06/26 02:24:14;;;;;;;11.60;10.90;;;23.30;12.10;;;;;;5013346;28;20427;-76
2023/06/26 02:26:39;;;;;;;11.60;10.80;;;23.30;12.20;;;;;;5014470;28;20898;-75
2023/06/26 02:29:05;;;;;;;11.20;10.43;;;23.30;12.30;;;;;;5014958;28;20166;-76
2023/06/26 02:31:30;;;;;;;11.57;10.67;;;23.20;12.40;;;;;;5005774;28;20213;-76
2023/06/26 02:33:55;;;;;;;11.37;10.47;;;23.20;12.40;;;;;;5014293;28;20186;-77
2023/06/26 02:36:21;;;;;;;11.10;10.37;;;23.20;12.50;;;;;;5012638;28;20710;-76
2023/06/26 02:38:47;;;;;;;10.73;10.03;;;23.20;12.50;;;;;;5013937;28;20173;-76
2023/06/26 02:41:12;;;;;;;12.40;11.60;;;23.20;12.50;;;;;;5012197;28;20173;-76
2023/06/26 02:43:38;;;;;;;11.10;10.20;;;23.20;12.60;;;;;;5013335;28;20185;-75
2023/06/26 02:46:03;;;;;;;10.37;9.47;;;23.20;12.80;;;;;;5012514;28;20754;-75
2023/06/26 02:48:29;;;;;;;11.83;10.83;;;23.10;12.90;;;;;;5011230;28;20181;-76
2023/06/26 02:50:54;;;;;;;11.57;10.87;;;23.10;12.80;;;;;;5012485;28;20169;-77
2023/06/26 02:53:20;;;;;;;12.83;12.03;;;23.10;12.80;;;;;;5012723;28;20220;-76
2023/06/26 02:55:47;;;;;;;13.10;12.20;;;23.00;12.90;;;;;;5012359;28;20200;-75
2023/06/26 02:58:13;;;;;;;12.90;12.10;;;23.10;13.00;;;;;;5013651;28;20228;-76
2023/06/26 03:00:41;;;;;;;10.20;9.50;;;23.10;13.10;;;;;;5012346;28;20416;-75
2023/06/26 03:03:07;;;;;;;12.30;11.60;;;23.00;13.00;;;;;;5011415;28;20248;-76
2023/06/26 03:05:33;;;;;;;11.40;10.50;;;23.10;13.20;;;;;;5013399;28;20900;-76
2023/06/26 03:07:58;;;;;;;11.60;10.70;;;23.00;13.10;;;;;;5013087;28;20499;-76
2023/06/26 03:10:24;;;;;;;13.50;12.60;;;23.00;13.20;;;;;;5011580;28;20643;-75
2023/06/26 03:12:49;;;;;;;11.70;10.80;;;23.00;13.40;;;;;;5010927;28;20219;-76
2023/06/26 03:15:15;;;;;;;12.90;12.10;;;23.00;13.40;;;;;;5012917;28;20209;-75
2023/06/26 03:17:40;;;;;;;11.87;10.97;;;22.90;13.30;;;;;;5013422;28;20691;-75
2023/06/26 03:20:07;;;;;;;10.77;10.07;;;23.00;13.30;;;;;;5011731;28;20212;-76
2023/06/26 03:22:33;;;;;;;12.00;11.30;;;23.00;13.40;;;;;;5012617;28;20221;-75
2023/06/26 03:24:59;;;;;;;12.70;11.90;;;23.00;13.30;;;;;;5013471;28;20404;-75
2023/06/26 03:27:25;;;;;;;12.00;11.10;;;22.90;13.40;;;;;;5012679;28;20426;-75
2023/06/26 03:29:52;;;;;;;11.27;10.57;;;23.00;13.40;;;;;;5013410;28;20783;-74
2023/06/26 03:32:18;;;;;;;11.00;10.10;;;23.00;13.30;;;;;;5010967;28;21023;-76
2023/06/26 03:34:43;;;;;;;11.87;11.00;;;23.00;13.30;;;;;;5011051;28;20515;-75
2023/06/26 03:37:09;;;;;;;11.40;10.60;;;22.90;13.30;;;;;;5012545;28;20219;-75
2023/06/26 03:39:34;;;;;;;11.60;10.80;;;23.00;13.40;;;;;;5012723;28;20176;-75
2023/06/26 03:42:01;;;;;;;11.60;10.80;;;23.00;13.40;;;;;;5011702;28;20185;-75
2023/06/26 03:44:27;;;;;;;12.90;12.10;;;22.90;13.20;;;;;;5012594;28;20173;-75
2023/06/26 03:46:52;;;;;;;13.63;12.70;;;23.00;13.30;;;;;;5012837;28;20408;-75
2023/06/26 03:49:18;;;;;;;12.07;10.87;;;23.00;13.30;;;;;;5012489;28;20748;-77
2023/06/26 03:51:44;;;;;;;11.70;10.90;;;22.90;13.10;;;;;;5012009;28;20196;-75
2023/06/26 03:54:10;;;;;;;11.20;10.43;;;23.00;13.20;;;;;;5012460;28;20261;-75
2023/06/26 03:56:36;;;;;;;11.63;10.73;;;23.00;13.00;;;;;;5012288;28;20845;-75
2023/06/26 03:59:01;;;;;;;13.17;12.20;;;23.00;13.00;;;;;;5010592;28;20259;-76
2023/06/26 04:01:27;;;;;;;12.67;11.90;;;23.00;13.30;;;;;;5011709;28;20408;-75
2023/06/26 04:03:53;;;;;;;14.23;13.23;;;23.00;13.30;;;;;;5012344;28;20216;-76
2023/06/26 04:06:19;;;;;;;12.33;11.60;;;23.00;13.40;;;;;;5010649;28;20181;-75
2023/06/26 04:08:44;;;;;;;12.17;11.37;;;22.90;13.60;;;;;;5012344;28;20181;-75
2023/06/26 04:11:10;;;;;;;11.23;10.33;;;23.00;13.50;;;;;;5011517;28;20185;-78
2023/06/26 04:13:36;;;;;;;12.30;11.50;;;23.00;13.40;;;;;;5012202;28;20224;-74
2023/06/26 04:16:01;;;;;;;12.37;11.60;;;23.00;13.20;;;;;;5014830;28;20827;-74
2023/06/26 04:18:27;;;;;;;11.97;11.17;;;23.00;13.30;;;;;;5012507;28;20181;-74
2023/06/26 04:21:09;;;;;;;13.03;12.20;;;23.00;13.30;;;;;;5013409;28;20176;-75
2023/06/26 04:23:35;;;;;;;12.87;12.07;;;23.00;13.30;;;;;;5011124;28;20185;-75
2023/06/26 04:26:02;;;;;;;13.03;11.83;;;23.10;13.60;;;;;;5012503;28;20421;-75
2023/06/26 04:28:28;;;;;;;12.60;11.57;;;23.10;13.90;;;;;;5012486;28;20474;-75
2023/06/26 04:30:54;;;;;;;13.30;12.40;;;23.10;13.90;;;;;;5012404;28;20415;-75
2023/06/26 04:33:19;;;;;;;11.70;10.80;;;23.10;14.00;;;;;;5010170;28;20429;-75
2023/06/26 04:35:48;;;;;;;11.40;10.57;;;23.10;14.20;;;;;;5012261;28;20548;-74
2023/06/26 04:38:15;;;;;;;12.10;11.20;;;23.10;14.20;;;;;;5010752;28;20607;-76
2023/06/26 04:40:40;;;;;;;13.10;12.10;;;23.10;14.20;;;;;;5011203;28;20786;-75
2023/06/26 04:43:06;;;;;;;12.30;11.60;;;23.10;14.50;;;;;;5011906;28;20432;-75
2023/06/26 04:45:31;;;;;;;14.17;13.07;;;23.10;14.70;;;;;;5010927;28;20177;-75
2023/06/26 04:47:57;;;;;;;13.50;12.60;;;23.10;14.70;;;;;;5012254;28;20204;-75
2023/06/26 04:50:23;;;;;;;14.40;13.23;;;23.10;14.70;;;;;;5011713;28;20177;-75
2023/06/26 04:52:48;;;;;;;13.03;11.87;;;23.00;15.10;;;;;;5011748;28;20193;-75
2023/06/26 04:55:14;;;;;;;12.93;11.40;;;23.10;15.80;;;;;;5010884;28;20255;-74
2023/06/26 04:57:39;;;;;;;13.57;12.50;;;23.10;15.20;;;;;;5012227;28;20184;-75
2023/06/26 05:00:09;;;;;;;12.57;11.77;;;23.10;15.20;;;;;;5012428;28;20181;-75
2023/06/26 05:02:35;;;;;;;14.53;13.43;;;23.10;15.20;;;;;;5011910;28;20200;-75
2023/06/26 05:05:01;;;;;;;13.50;12.50;;;23.10;15.20;;;;;;5012507;28;20420;-76
2023/06/26 05:07:26;;;;;;;18.73;13.10;;;23.10;15.20;;;;;;5012228;28;20181;-74
2023/06/26 05:09:52;;;;;;;13.37;12.27;;;23.10;15.20;;;;;;5011140;28;20181;-75
2023/06/26 05:12:17;;;;;;;13.83;12.60;;;23.10;15.20;;;;;;5015663;28;20366;-75
2023/06/26 05:14:43;;;;;;;12.20;11.40;;;23.10;15.20;;;;;;5015109;28;20212;-75
2023/06/26 05:17:09;;;;;;;13.00;12.17;;;23.10;15.30;;;;;;5016309;28;20594;-75
2023/06/26 05:19:34;;;;;;;12.57;11.67;;;23.10;15.40;;;;;;5016149;28;20231;-74
2023/06/26 05:22:03;;;;;;;12.27;11.10;;;23.10;15.30;;;;;;5015605;28;20208;-74
2023/06/26 05:24:30;;;;;;;12.47;11.67;;;23.20;15.80;;;;;;5010284;28;20667;-74
2023/06/26 05:26:56;;;;;;;13.60;12.23;;;23.20;15.30;;;;;;4994396;28;20911;-75
2023/06/26 05:29:21;;;;;;;13.57;12.67;;;23.20;15.30;;;;;;4999270;28;20443;-74
2023/06/26 05:31:50;;;;;;;13.00;11.90;;;23.30;15.30;;;;;;5012821;28;20935;-75
2023/06/26 05:34:19;;;;;;;13.20;12.27;;;23.20;15.30;;;;;;5014489;28;20571;-74
2023/06/26 05:36:45;;;;;;;13.27;12.30;;;23.30;15.30;;;;;;5015804;28;20419;-74
2023/06/26 05:39:11;;;;;;;13.83;12.73;;;23.30;15.30;;;;;;5015509;28;20463;-73
2023/06/26 05:41:37;;;;;;;11.97;11.17;;;23.30;15.30;;;;;;5015049;28;20412;-73
2023/06/26 05:44:02;;;;;;;12.17;11.27;;;23.40;15.30;;;;;;5014223;28;20655;-73
2023/06/26 05:46:28;;;;;;;12.37;11.50;;;23.40;15.20;;;;;;5015807;28;20235;-73
2023/06/26 05:48:54;;;;;;;12.77;11.90;;;23.40;15.00;;;;;;5015020;28;20532;-74
2023/06/26 05:51:19;;;;;;;14.30;13.17;;;23.40;14.80;;;;;;5014248;28;20656;-73
2023/06/26 05:53:45;;;;;;;13.80;12.50;;;23.50;15.40;;;;;;5014457;28;20245;-72
2023/06/26 05:56:11;;;;;;;11.80;11.00;;;23.60;14.70;;;;;;5013871;28;20209;-75
2023/06/26 05:58:37;;;;;;;11.90;10.93;;;23.70;14.70;;;;;;5015169;28;20173;-77
2023/06/26 06:01:02;;;;;;;12.03;11.03;;;23.70;14.60;;;;;;5015042;28;20678;-77
2023/06/26 06:03:28;;;;;;;12.57;11.67;;;23.70;14.60;;;;;;5014711;28;20193;-77
2023/06/26 06:05:53;;;;;;;11.63;10.83;;;23.80;14.60;;;;;;5015400;28;20191;-77
2023/06/26 06:08:19;;;;;;;11.47;10.77;;;23.80;14.50;;;;;;5015410;28;20268;-76
2023/06/26 06:10:45;;;;;;;11.93;10.83;;;23.80;14.60;;;;;;5015579;28;20197;-77
2023/06/26 06:13:10;;;;;;;13.63;12.30;;;23.90;14.70;;;;;;5014539;28;20239;-76
2023/06/26 06:15:36;;;;;;;11.80;11.00;;;23.90;14.60;;;;;;5015522;28;20236;-76
2023/06/26 06:18:01;;;;;;;12.03;10.90;;;23.90;14.60;;;;;;5014159;28;20232;-77
2023/06/26 06:20:27;;;;;;;12.33;11.33;;;23.90;14.70;;;;;;5015422;28;20536;-77
2023/06/26 06:22:52;;;;;;;12.50;11.50;;;24.00;15.20;;;;;;5014586;28;20197;-76
2023/06/26 06:25:18;;;;;;;12.57;11.37;;;24.00;15.20;;;;;;5014704;28;20176;-74
2023/06/26 06:27:44;;;;;;;11.80;10.80;;;24.00;15.40;;;;;;5014609;28;20181;-75
2023/06/26 06:30:10;;;;;;;12.70;11.80;;;24.00;14.80;;;;;;5014696;28;20228;-74
2023/06/26 06:32:36;;;;;;;12.53;11.53;;;24.10;14.80;;;;;;5014009;28;20478;-74
2023/06/26 06:35:09;;;;;;;11.80;11.00;;;24.20;15.00;;;;;;5013265;28;20898;-74
2023/06/26 06:37:36;;;;;;;11.73;10.70;;;24.20;14.70;;;;;;5013023;28;20224;-75
2023/06/26 06:40:01;;;;;;;11.93;11.10;;;24.30;13.10;;;;;;5014182;28;20415;-75
2023/06/26 06:42:27;;;;;;;11.80;11.00;;;24.30;13.10;;;;;;5013623;28;20428;-75
2023/06/26 06:44:52;;;;;;;12.00;11.20;;;24.50;13.60;;;;;;5014498;28;20235;-75
2023/06/26 06:47:18;;;;;;;13.20;12.27;;;24.50;13.60;;;;;;5014193;28;20683;-76
2023/06/26 06:49:43;;;;;;;12.90;11.90;;;24.60;13.10;;;;;;5014235;28;20178;-76
2023/06/26 06:52:09;;;;;;;12.30;11.50;;;24.70;12.60;;;;;;5013365;28;20197;-76
2023/06/26 06:54:51;;;;;;;12.53;11.73;;;24.80;12.40;;;;;;5014130;28;20225;-76
2023/06/26 06:57:17;;;;;;;12.70;11.60;;;25.00;12.00;;;;;;5014264;28;20236;-75
2023/06/26 06:59:42;;;;;;;11.73;10.97;;;25.20;11.60;;;;;;5014618;28;20420;-76
2023/06/26 07:02:08;;;;;;;11.90;11.20;;;25.50;11.10;;;;;;5013818;28;20208;-77
2023/06/26 07:04:33;;;;;;;12.77;11.80;;;25.70;10.80;;;;;;5014734;28;20535;-76
2023/06/26 07:06:59;;;;;;;12.67;11.87;;;25.70;11.30;;;;;;5014344;28;20173;-76
2023/06/26 07:09:24;;;;;;;14.20;12.67;;;25.70;12.40;;;;;;5014538;28;20170;-77
2023/06/26 07:11:50;;;;;;;14.33;11.80;;;25.70;12.70;;;;;;5013549;28;20196;-77
2023/06/26 07:14:15;;;;;;;11.73;10.77;;;25.70;12.50;;;;;;5013889;28;20533;-76
2023/06/26 07:16:41;;;;;;;12.17;11.17;;;25.60;12.70;;;;;;5013882;28;20173;-77
2023/06/26 07:19:06;;;;;;;14.63;11.30;;;25.70;12.40;;;;;;5013969;28;20181;-76
2023/06/26 07:21:32;;;;;;;12.43;11.47;;;25.80;12.60;;;;;;5013320;28;20291;-80
2023/06/26 07:23:57;;;;;;;13.40;12.20;;;25.90;12.80;;;;;;5015959;28;20174;-79
2023/06/26 07:26:23;;;;;;;12.97;12.00;;;25.90;12.50;;;;;;5016776;28;20686;-79
2023/06/26 07:28:49;;;;;;;13.13;12.23;;;26.00;12.60;;;;;;5016365;28;20440;-79
2023/06/26 07:31:16;;;;;;;16.73;12.30;;;26.00;12.60;;;;;;5019766;28;20220;-79
2023/06/26 07:33:42;;;;;;;13.10;12.07;;;26.00;12.60;;;;;;5021769;28;20498;-79
2023/06/26 07:36:07;;;;;;;14.00;12.47;;;26.10;12.60;;;;;;5022133;28;20463;-79
2023/06/26 07:38:33;;;;;;;13.53;12.53;;;26.20;12.30;;;;;;5020860;28;20530;-79
2023/06/26 07:40:58;;;;;;;13.33;12.23;;;26.20;12.40;;;;;;5020465;28;20173;-79
2023/06/26 07:43:24;;;;;;;14.90;13.40;;;26.40;12.20;;;;;;5019989;28;20201;-79
2023/06/26 07:45:51;;;;;;;13.27;11.90;;;26.60;12.40;;;;;;5019969;28;20192;-79
2023/06/26 07:48:17;;;;;;;13.00;12.00;;;26.60;11.40;;;;;;5021265;28;20188;-79
2023/06/26 07:50:42;;;;;;;12.87;12.07;;;26.60;11.40;;;;;;5021119;28;20409;-79
2023/06/26 07:53:08;;;;;;;14.63;13.47;;;26.70;10.70;;;;;;5018481;28;20201;-79
2023/06/26 07:55:33;;;;;;;14.77;13.40;;;26.80;11.00;;;;;;5020528;28;20682;-79
2023/06/26 07:58:00;;;;;;;13.83;12.83;;;26.90;10.90;;;;;;5020867;28;20184;-79
2023/06/26 08:00:26;;;;;;;15.93;13.33;;;27.10;10.80;;;;;;5020509;28;20221;-79
2023/06/26 08:02:52;;;;;;;13.30;12.30;;;27.30;10.30;;;;;;5020183;28;20440;-79
2023/06/26 08:05:17;;;;;;;13.30;12.37;;;27.30;10.10;;;;;;5018232;28;20531;-78
2023/06/26 08:07:43;;;;;;;13.83;12.17;;;27.20;10.60;;;;;;5017640;28;20260;-78
2023/06/26 08:10:09;;;;;;;12.47;11.70;;;27.20;9.90;;;;;;5019858;28;20256;-78
2023/06/26 08:12:36;;;;;;;14.30;13.20;;;27.30;9.80;;;;;;5016443;28;20241;-78
2023/06/26 08:15:02;;;;;;;13.10;12.20;;;27.40;9.80;;;;;;5017631;28;20452;-80
2023/06/26 08:17:28;;;;;;;15.10;13.83;;;27.50;8.80;;;;;;5020344;28;20408;-79
2023/06/26 08:19:54;;;;;;;13.57;12.77;;;27.70;8.90;;;;;;5020814;28;20420;-79
2023/06/26 08:22:19;;;;;;;13.10;12.20;;;27.70;8.90;;;;;;5018038;28;20556;-79
2023/06/26 08:24:45;;;;;;;12.43;11.77;;;27.80;8.80;;;;;;5020082;28;20235;-79
2023/06/26 08:27:10;;;;;;;11.27;10.60;;;27.70;8.70;;;;;;5019651;28;20177;-79
2023/06/26 08:29:36;;;;;;;12.07;10.93;;;27.70;7.90;;;;;;5017912;28;20268;-78
2023/06/26 08:32:02;;;;;;;13.60;12.77;;;27.70;8.10;;;;;;5017138;28;20296;-78
2023/06/26 08:34:27;;;;;;;12.70;11.53;;;27.70;8.00;;;;;;5018167;28;20586;-78
2023/06/26 08:36:53;;;;;;;12.90;12.10;;;27.70;7.80;;;;;;5018371;28;20416;-78
2023/06/26 08:39:18;;;;;;;12.00;11.30;;;27.70;8.10;;;;;;5015078;28;20170;-78
2023/06/26 08:41:55;;;;;;;11.00;10.40;;;27.70;8.10;;;;;;5017614;28;20566;-78
2023/06/26 08:44:24;;;;;;;11.80;11.10;;;27.60;8.50;;;;;;5016106;28;20170;-79
2023/06/26 08:46:51;;;;;;;12.23;11.53;;;27.60;8.90;;;;;;5018746;28;20415;-79
2023/06/26 08:49:34;;;;;;;12.00;11.10;;;27.60;8.60;;;;;;5023698;28;20408;-79
2023/06/26 08:52:13;;;;;;;11.17;10.60;;;27.60;8.80;;;;;;5021111;28;20517;-79
2023/06/26 08:54:45;;;;;;;11.80;11.20;;;27.60;8.90;;;;;;5023557;28;20452;-79
2023/06/26 08:57:11;;;;;;;10.57;9.73;;;27.60;7.90;;;;;;5021570;28;20491;-79
2023/06/26 08:59:37;;;;;;;11.20;10.50;;;27.60;8.60;;;;;;5021412;28;20775;-79
2023/06/26 09:02:02;;;;;;;12.07;11.40;;;27.70;7.70;;;;;;5018568;28;20428;-79
2023/06/26 09:04:28;;;;;;;12.40;11.70;;;27.70;8.00;;;;;;5019352;28;20176;-78
2023/06/26 09:06:54;;;;;;;12.50;11.50;;;27.70;8.00;;;;;;5018844;28;20188;-79
2023/06/26 09:09:20;;;;;;;11.97;11.27;;;27.70;8.10;;;;;;5018237;28;20539;-79
2023/06/26 09:11:45;;;;;;;12.47;11.77;;;27.70;7.50;;;;;;5016233;28;20220;-79
2023/06/26 09:14:13;;;;;;;13.13;12.27;;;27.80;7.70;;;;;;5018044;28;20894;-79
2023/06/26 09:16:42;;;;;;;12.87;11.97;;;27.80;7.90;;;;;;5018021;28;20268;-78
2023/06/26 09:19:11;;;;;;;12.07;11.40;;;27.80;7.70;;;;;;5016268;28;20440;-79
2023/06/26 09:21:37;;;;;;;11.20;10.50;;;27.90;7.30;;;;;;5015295;28;20439;-79
2023/06/26 09:24:03;;;;;;;10.70;10.10;;;28.00;7.00;;;;;;5018051;28;20459;-78
2023/06/26 09:26:29;;;;;;;11.57;10.80;;;28.10;6.70;;;;;;5016844;28;20408;-78
2023/06/26 09:28:56;;;;;;;11.50;10.57;;;28.30;7.00;;;;;;5015664;28;20665;-79
2023/06/26 09:31:26;;;;;;;10.07;9.57;;;28.30;7.00;;;;;;5016289;28;20561;-79
2023/06/26 09:33:58;;;;;;;11.13;10.57;;;28.30;6.60;;;;;;5016925;28;20455;-79
2023/06/26 09:36:26;;;;;;;11.27;10.37;;;28.30;6.60;;;;;;5016496;28;20488;-78
2023/06/26 09:38:52;;;;;;;11.90;10.97;;;28.30;6.80;;;;;;5016883;28;20925;-78
2023/06/26 09:41:18;;;;;;;11.40;10.80;;;28.30;6.80;;;;;;5015812;28;20412;-78
2023/06/26 09:43:51;;;;;;;10.90;10.30;;;28.30;6.50;;;;;;5017798;28;20224;-78
2023/06/26 09:46:18;;;;;;;12.20;11.07;;;28.40;6.40;;;;;;5017876;28;20173;-78
2023/06/26 09:48:43;;;;;;;10.77;10.17;;;28.50;6.60;;;;;;5016758;28;20427;-78
2023/06/26 09:51:10;;;;;;;11.23;10.43;;;28.50;6.70;;;;;;5016730;28;20412;-79
2023/06/26 09:53:38;;;;;;;12.50;11.80;;;28.60;6.60;;;;;;5018199;28;20240;-78
2023/06/26 09:56:07;;;;;;;11.67;10.97;;;28.70;6.60;;;;;;5018362;28;20463;-78
2023/06/26 09:58:33;;;;;;;11.27;10.57;;;28.80;6.40;;;;;;5020782;28;20498;-78
2023/06/26 10:00:59;;;;;;;11.30;10.70;;;28.90;6.60;;;;;;5022087;28;20420;-78
2023/06/26 10:03:25;;;;;;;11.70;10.80;;;28.90;6.70;;;;;;5020429;28;20435;-79
2023/06/26 10:05:52;;;;;;;10.93;10.33;;;29.00;7.00;;;;;;5021682;28;20775;-79
2023/06/26 10:08:17;;;;;;;10.70;10.07;;;28.90;6.60;;;;;;5021487;28;20185;-78
2023/06/26 10:10:44;;;;;;;10.37;9.20;;;29.00;6.80;;;;;;5020134;28;20427;-78
2023/06/26 10:13:26;;;;;;;11.07;10.40;;;29.10;6.80;;;;;;5018824;28;20398;-79
2023/06/26 10:15:53;;;;;;;10.43;9.70;;;29.30;6.30;;;;;;5021116;28;20996;-78
2023/06/26 10:18:23;;;;;;;11.43;10.73;;;29.50;6.30;;;;;;5020431;28;20427;-78
2023/06/26 10:20:53;;;;;;;10.90;10.30;;;29.50;6.50;;;;;;5022462;28;20444;-79
2023/06/26 10:23:20;;;;;;;11.97;11.17;;;29.40;6.80;;;;;;5020012;28;20498;-79
2023/06/26 10:25:48;;;;;;;11.67;10.90;;;29.20;6.90;;;;;;5019433;28;20482;-78
2023/06/26 10:28:16;;;;;;;12.40;11.60;;;29.10;7.50;;;;;;5019298;28;20420;-79
2023/06/26 10:30:44;;;;;;;11.30;10.30;;;29.00;7.30;;;;;;5018809;28;20415;-78
2023/06/26 10:33:10;;;;;;;12.70;11.63;;;28.90;7.50;;;;;;5015855;28;20479;-78
2023/06/26 10:35:44;;;;;;;11.20;10.50;;;28.80;7.60;;;;;;5020267;28;20460;-78
2023/06/26 10:38:10;;;;;;;12.60;11.60;;;29.00;7.80;;;;;;5017932;28;20169;-77
2023/06/26 10:40:48;;;;;;;12.67;11.67;;;29.00;8.20;;;;;;5015584;28;20409;-77
2023/06/26 10:43:14;;;;;;;12.03;11.00;;;29.00;8.10;;;;;;5013134;28;20283;-77
2023/06/26 10:45:46;;;;;;;11.40;10.47;;;29.20;7.80;;;;;;5015381;28;20881;-77
2023/06/26 10:48:14;;;;;;;11.57;10.87;;;29.50;5.90;;;;;;5015109;28;20409;-77
2023/06/26 10:50:39;;;;;;;12.43;11.70;;;29.80;6.00;;;;;;5015219;28;20772;-77
2023/06/26 10:53:34;;;;;;;13.47;12.03;;;29.90;5.50;;;;;;5014235;28;20440;-77
2023/06/26 10:56:05;;;;;;;12.43;11.67;;;29.90;5.50;;;;;;5015041;28;20239;-78
2023/06/26 10:58:39;;;;;;;12.50;11.60;;;29.80;6.00;;;;;;5015843;28;20478;-78
2023/06/26 11:01:11;;;;;;;11.87;10.87;;;29.80;5.70;;;;;;5014752;28;20973;-77
2023/06/26 11:03:49;;;;;;;11.10;10.50;;;29.90;5.70;;;;;;5014045;28;20436;-76
2023/06/26 11:06:18;;;;;;;12.07;11.17;;;30.00;5.50;;;;;;5013276;28;20444;-76
2023/06/26 11:08:46;;;;;;;11.60;10.70;;;30.00;5.90;;;;;;5013516;28;20474;-76
2023/06/26 11:11:12;;;;;;;13.43;12.43;;;29.90;5.90;;;;;;5013813;28;20412;-78
2023/06/26 11:13:39;;;;;;;10.53;9.93;;;30.20;5.30;;;;;;5014301;28;20521;-76
2023/06/26 11:16:05;;;;;;;11.53;10.83;;;30.40;4.80;;;;;;5013851;28;20568;-76
2023/06/26 11:18:32;;;;;;;11.50;10.50;;;30.50;5.00;;;;;;5014098;28;20907;-76
2023/06/26 11:21:13;;;;;;;12.30;11.30;;;30.60;4.40;;;;;;5014241;28;20404;-76
2023/06/26 11:23:39;;;;;;;11.90;11.20;;;30.70;4.50;;;;;;5013788;28;20428;-75
2023/06/26 11:26:21;;;;;;;10.80;10.10;;;30.60;4.60;;;;;;5013799;28;20455;-74
2023/06/26 11:28:51;;;;;;;12.60;11.80;;;30.70;3.90;;;;;;5013923;28;20930;-75
2023/06/26 11:31:33;;;;;;;12.03;11.33;;;30.60;4.20;;;;;;5012660;28;20415;-74
2023/06/26 11:34:03;;;;;;;12.57;11.57;;;30.50;4.50;;;;;;5013478;28;20508;-75
2023/06/26 11:36:29;;;;;;;12.10;11.30;;;30.60;5.20;;;;;;5013209;28;20547;-77
2023/06/26 11:38:56;;;;;;;13.17;12.17;;;30.50;5.30;;;;;;5013550;28;20820;-76
2023/06/26 11:41:23;;;;;;;13.40;12.10;;;30.20;6.00;;;;;;5012824;28;20408;-76
2023/06/26 11:43:49;;;;;;;12.70;11.90;;;30.00;6.40;;;;;;5011970;28;20432;-76
2023/06/26 11:46:17;;;;;;;12.90;11.90;;;29.90;6.90;;;;;;5013438;28;20423;-75
2023/06/26 11:48:43;;;;;;;12.37;11.63;;;29.70;7.10;;;;;;5012204;28;20424;-77
2023/06/26 11:51:09;;;;;;;12.73;12.03;;;29.50;7.50;;;;;;5013099;28;20416;-78
2023/06/26 11:53:42;;;;;;;14.00;12.20;;;29.50;7.30;;;;;;5013259;28;20796;-75
2023/06/26 11:56:12;;;;;;;12.97;11.90;;;29.50;7.40;;;;;;5013162;28;20266;-76
2023/06/26 11:59:03;;;;;;;12.57;11.53;;;29.40;7.70;;;;;;5013148;28;20886;-76
2023/06/26 12:01:35;;;;;;;12.10;11.30;;;29.40;7.60;;;;;;5012558;28;20849;-78
2023/06/26 12:04:04;;;;;;;11.97;11.30;;;29.30;9.00;;;;;;5013443;28;20832;-77
2023/06/26 12:06:31;;;;;;;13.20;12.13;;;29.50;10.00;;;;;;5012136;28;20446;-77
2023/06/26 12:08:59;;;;;;;12.70;10.67;;;29.50;9.90;;;;;;5012301;28;20424;-77
2023/06/26 12:11:25;;;;;;;12.67;11.80;;;29.30;9.80;;;;;;5012213;28;20424;-76
2023/06/26 12:13:51;;;;;;;11.53;10.63;;;29.30;10.30;;;;;;5012929;28;20442;-76
2023/06/26 12:16:18;;;;;;;11.43;10.67;;;29.20;10.30;;;;;;5012739;28;20514;-76
2023/06/26 12:18:43;;;;;;;11.47;10.80;;;29.10;10.80;;;;;;5012479;28;20412;-76
2023/06/26 12:21:44;;;;;;;12.10;11.30;;;28.90;11.10;;;;;;5012126;28;20495;-76
2023/06/26 12:24:13;;;;;;;12.23;11.10;;;28.80;11.20;;;;;;5012626;28;20173;-76
2023/06/26 12:26:43;;;;;;;12.27;10.90;;;28.70;11.30;;;;;;5012688;28;20413;-76
2023/06/26 12:29:13;;;;;;;12.80;11.73;;;28.60;11.60;;;;;;5012564;28;20499;-76
2023/06/26 12:31:43;;;;;;;11.40;10.60;;;28.50;11.80;;;;;;5011423;28;20448;-76
2023/06/26 12:34:12;;;;;;;13.00;11.73;;;28.60;11.80;;;;;;5012409;28;20451;-76